createdAt,value
2023-04-15T00:00:29.192Z,515.0000
2023-04-15T00:01:37.275Z,508.0000
2023-04-15T00:02:45.276Z,514.0000
2023-04-15T00:03:53.484Z,519.0000
2023-04-15T00:05:01.383Z,512.0000
2023-04-15T00:06:09.459Z,508.0000
2023-04-15T00:07:17.515Z,514.0000
2023-04-15T00:08:25.696Z,517.0000
2023-04-15T00:09:33.657Z,499.0000
2023-04-15T00:10:41.611Z,495.0000
2023-04-15T00:11:49.815Z,497.0000
2023-04-15T00:12:57.952Z,511.0000
2023-04-15T00:14:05.807Z,524.0000
2023-04-15T00:15:14.003Z,511.0000
2023-04-15T00:16:22.110Z,507.0000
2023-04-15T00:17:30.122Z,527.0000
2023-04-15T00:18:38.173Z,540.0000
2023-04-15T00:19:46.277Z,541.0000
2023-04-15T00:20:54.352Z,540.0000
2023-04-15T00:22:02.468Z,546.0000
2023-04-15T00:23:10.396Z,544.0000
2023-04-15T00:24:18.665Z,528.0000
2023-04-15T00:25:26.627Z,534.0000
2023-04-15T00:26:34.598Z,540.0000
2023-04-15T00:27:42.760Z,547.0000
2023-04-15T00:28:50.792Z,547.0000
2023-04-15T00:29:58.840Z,548.0000
2023-04-15T00:31:06.960Z,551.0000
2023-04-15T00:32:14.994Z,558.0000
2023-04-15T00:33:23.008Z,553.0000
2023-04-15T00:34:30.995Z,560.0000
2023-04-15T00:35:39.324Z,563.0000
2023-04-15T00:36:47.257Z,561.0000
2023-04-15T00:37:55.298Z,565.0000
2023-04-15T00:39:03.409Z,573.0000
2023-04-15T00:40:11.423Z,571.0000
2023-04-15T00:41:19.497Z,575.0000
2023-04-15T00:42:27.472Z,563.0000
2023-04-15T00:43:35.713Z,548.0000
2023-04-15T00:44:43.688Z,526.0000
2023-04-15T00:45:51.858Z,522.0000
2023-04-15T00:46:59.902Z,518.0000
2023-04-15T00:48:07.922Z,525.0000
2023-04-15T00:49:16.094Z,528.0000
2023-04-15T00:50:24.027Z,538.0000
2023-04-15T00:51:32.264Z,582.0000
2023-04-15T00:52:40.190Z,582.0000
2023-04-15T00:53:48.237Z,592.0000
2023-04-15T00:54:56.344Z,570.0000
2023-04-15T00:56:04.393Z,539.0000
2023-04-15T00:57:12.426Z,530.0000
2023-04-15T00:58:20.495Z,527.0000
2023-04-15T00:59:28.676Z,527.0000
2023-04-15T01:00:36.651Z,527.0000
2023-04-15T01:01:44.893Z,517.0000
2023-04-15T01:02:53.041Z,515.0000
2023-04-15T01:04:00.846Z,517.0000
2023-04-15T01:05:08.893Z,525.0000
2023-04-15T01:06:16.994Z,528.0000
2023-04-15T01:07:25.050Z,522.0000
2023-04-15T01:08:33.065Z,521.0000
2023-04-15T01:09:41.172Z,528.0000
2023-04-15T01:10:49.350Z,521.0000
2023-04-15T01:11:57.277Z,513.0000
2023-04-15T01:13:05.353Z,508.0000
2023-04-15T01:14:13.567Z,511.0000
2023-04-15T01:15:21.501Z,517.0000
2023-04-15T01:16:29.721Z,522.0000
2023-04-15T01:17:37.795Z,521.0000
2023-04-15T01:18:45.794Z,519.0000
2023-04-15T01:19:53.831Z,523.0000
2023-04-15T01:21:01.875Z,530.0000
2023-04-15T01:22:09.953Z,537.0000
2023-04-15T01:23:18.138Z,531.0000
2023-04-15T01:24:26.059Z,527.0000
2023-04-15T01:25:34.071Z,530.0000
2023-04-15T01:26:43.505Z,529.0000
2023-04-15T01:27:50.291Z,523.0000
2023-04-15T01:28:58.458Z,526.0000
2023-04-15T01:30:06.433Z,532.0000
2023-04-15T01:31:14.483Z,536.0000
2023-04-15T01:32:22.563Z,538.0000
2023-04-15T01:33:30.597Z,535.0000
2023-04-15T01:34:38.561Z,542.0000
2023-04-15T01:35:46.732Z,553.0000
2023-04-15T01:36:54.767Z,558.0000
2023-04-15T01:38:02.984Z,549.0000
2023-04-15T01:39:10.895Z,551.0000
2023-04-15T01:40:18.994Z,551.0000
2023-04-15T01:41:27.068Z,555.0000
2023-04-15T01:42:35.253Z,552.0000
2023-04-15T01:43:43.168Z,544.0000
2023-04-15T01:44:51.234Z,533.0000
2023-04-15T01:45:59.233Z,528.0000
2023-04-15T01:47:07.358Z,532.0000
2023-04-15T01:48:15.470Z,534.0000
2023-04-15T01:49:23.563Z,535.0000
2023-04-15T01:50:31.559Z,526.0000
2023-04-15T01:51:39.791Z,519.0000
2023-04-15T01:52:47.692Z,515.0000
2023-04-15T01:53:55.710Z,525.0000
2023-04-15T01:55:03.850Z,529.0000
2023-04-15T01:56:11.874Z,518.0000
2023-04-15T01:57:20.053Z,516.0000
2023-04-15T01:58:28.030Z,519.0000
2023-04-15T01:59:36.246Z,519.0000
2023-04-15T02:00:44.219Z,516.0000
2023-04-15T02:01:52.283Z,528.0000
2023-04-15T02:03:00.423Z,533.0000
2023-04-15T02:04:08.449Z,532.0000
2023-04-15T02:05:16.395Z,534.0000
2023-04-15T02:06:24.492Z,538.0000
2023-04-15T02:07:32.567Z,522.0000
2023-04-15T02:08:40.814Z,524.0000
2023-04-15T02:09:48.693Z,538.0000
2023-04-15T02:10:56.782Z,546.0000
2023-04-15T02:12:04.829Z,544.0000
2023-04-15T02:13:13.010Z,540.0000
2023-04-15T02:14:20.977Z,541.0000
2023-04-15T02:15:29.103Z,546.0000
2023-04-15T02:16:37.058Z,546.0000
2023-04-15T02:17:45.197Z,543.0000
2023-04-15T02:18:53.388Z,541.0000
2023-04-15T02:20:01.310Z,543.0000
2023-04-15T02:21:09.525Z,538.0000
2023-04-15T02:22:17.373Z,545.0000
2023-04-15T02:23:25.562Z,542.0000
2023-04-15T02:24:33.649Z,529.0000
2023-04-15T02:25:41.714Z,523.0000
2023-04-15T02:26:49.716Z,516.0000
2023-04-15T02:27:57.797Z,514.0000
2023-04-15T02:29:06.039Z,503.0000
2023-04-15T02:30:14.014Z,503.0000
2023-04-15T02:31:22.095Z,511.0000
2023-04-15T02:32:30.140Z,522.0000
2023-04-15T02:33:38.304Z,530.0000
2023-04-15T02:34:46.272Z,528.0000
2023-04-15T02:35:54.371Z,522.0000
2023-04-15T02:37:02.607Z,520.0000
2023-04-15T02:38:10.464Z,515.0000
2023-04-15T02:39:18.562Z,519.0000
2023-04-15T02:40:26.607Z,509.0000
2023-04-15T02:41:34.800Z,505.0000
2023-04-15T02:42:42.803Z,500.0000
2023-04-15T02:43:50.798Z,492.0000
2023-04-15T02:44:58.944Z,491.0000
2023-04-15T02:46:07.003Z,483.0000
2023-04-15T02:47:15.002Z,475.0000
2023-04-15T02:48:22.987Z,482.0000
2023-04-15T02:49:31.126Z,475.0000
2023-04-15T02:50:39.821Z,473.0000
2023-04-15T02:51:47.285Z,477.0000
2023-04-15T02:52:55.393Z,479.0000
2023-04-15T02:54:03.383Z,471.0000
2023-04-15T02:55:11.439Z,476.0000
2023-04-15T02:56:19.646Z,474.0000
2023-04-15T02:57:27.691Z,477.0000
2023-04-15T02:58:35.641Z,477.0000
2023-04-15T02:59:43.709Z,483.0000
2023-04-15T03:00:51.908Z,471.0000
2023-04-15T03:01:59.914Z,471.0000
2023-04-15T03:03:08.075Z,470.0000
2023-04-15T03:04:16.232Z,476.0000
2023-04-15T03:05:24.038Z,472.0000
2023-04-15T03:06:32.186Z,476.0000
2023-04-15T03:07:40.213Z,478.0000
2023-04-15T03:08:48.380Z,477.0000
2023-04-15T03:09:56.311Z,481.0000
2023-04-15T03:11:04.370Z,477.0000
2023-04-15T03:12:12.597Z,474.0000
2023-04-15T03:13:20.613Z,471.0000
2023-04-15T03:14:28.597Z,474.0000
2023-04-15T03:15:36.685Z,480.0000
2023-04-15T03:16:44.754Z,472.0000
2023-04-15T03:17:52.756Z,473.0000
2023-04-15T03:19:01.193Z,475.0000
2023-04-15T03:20:09.089Z,477.0000
2023-04-15T03:21:16.981Z,478.0000
2023-04-15T03:22:24.957Z,476.0000
2023-04-15T03:23:33.236Z,478.0000
2023-04-15T03:24:41.323Z,478.0000
2023-04-15T03:25:49.263Z,477.0000
2023-04-15T03:26:57.295Z,478.0000
2023-04-15T03:28:05.457Z,471.0000
2023-04-15T03:29:13.393Z,471.0000
2023-04-15T03:30:21.552Z,476.0000
2023-04-15T03:31:29.675Z,468.0000
2023-04-15T03:32:37.659Z,473.0000
2023-04-15T03:33:45.859Z,471.0000
2023-04-15T03:34:53.710Z,474.0000
2023-04-15T03:36:01.855Z,484.0000
2023-04-15T03:37:09.901Z,480.0000
2023-04-15T03:38:17.997Z,474.0000
2023-04-15T03:39:25.997Z,474.0000
2023-04-15T03:40:34.098Z,473.0000
2023-04-15T03:41:42.128Z,468.0000
2023-04-15T03:42:50.401Z,470.0000
2023-04-15T03:43:58.272Z,475.0000
2023-04-15T03:45:06.345Z,474.0000
2023-04-15T03:46:14.365Z,472.0000
2023-04-15T03:47:22.514Z,472.0000
2023-04-15T03:48:30.531Z,473.0000
2023-04-15T03:49:38.609Z,481.0000
2023-04-15T03:50:46.595Z,480.0000
2023-04-15T03:51:54.721Z,478.0000
2023-04-15T03:53:02.931Z,476.0000
2023-04-15T03:54:10.788Z,478.0000
2023-04-15T03:55:18.943Z,477.0000
2023-04-15T03:56:26.923Z,474.0000
2023-04-15T03:57:35.070Z,473.0000
2023-04-15T03:58:43.119Z,475.0000
2023-04-15T03:59:51.152Z,473.0000
2023-04-15T04:00:59.231Z,476.0000
2023-04-15T04:02:07.647Z,482.0000
2023-04-15T04:03:15.559Z,485.0000
2023-04-15T04:04:23.534Z,482.0000
2023-04-15T04:05:31.472Z,477.0000
2023-04-15T04:06:39.590Z,474.0000
2023-04-15T04:07:47.552Z,475.0000
2023-04-15T04:08:55.743Z,482.0000
2023-04-15T04:10:03.862Z,481.0000
2023-04-15T04:11:11.867Z,483.0000
2023-04-15T04:12:19.904Z,484.0000
2023-04-15T04:13:28.157Z,486.0000
2023-04-15T04:14:36.041Z,489.0000
2023-04-15T04:15:44.159Z,482.0000
2023-04-15T04:16:52.188Z,475.0000
2023-04-15T04:18:00.403Z,479.0000
2023-04-15T04:19:08.312Z,482.0000
2023-04-15T04:20:16.426Z,485.0000
2023-04-15T04:21:24.666Z,481.0000
2023-04-15T04:22:32.521Z,479.0000
2023-04-15T04:23:40.592Z,470.0000
2023-04-15T04:24:48.670Z,472.0000
2023-04-15T04:25:56.863Z,468.0000
2023-04-15T04:27:04.858Z,473.0000
2023-04-15T04:28:12.887Z,470.0000
2023-04-15T04:29:21.030Z,467.0000
2023-04-15T04:30:29.023Z,474.0000
2023-04-15T04:31:37.150Z,465.0000
2023-04-15T04:32:45.244Z,472.0000
2023-04-15T04:33:53.324Z,471.0000
2023-04-15T04:35:01.280Z,462.0000
2023-04-15T04:36:09.360Z,462.0000
2023-04-15T04:37:17.511Z,468.0000
2023-04-15T04:38:25.594Z,466.0000
2023-04-15T04:39:33.576Z,466.0000
2023-04-15T04:40:41.620Z,467.0000
2023-04-15T04:41:49.731Z,465.0000
2023-04-15T04:42:57.750Z,466.0000
2023-04-15T04:44:05.842Z,474.0000
2023-04-15T04:45:13.944Z,474.0000
2023-04-15T04:46:21.879Z,466.0000
2023-04-15T04:47:30.045Z,467.0000
2023-04-15T04:48:38.079Z,464.0000
2023-04-15T04:49:46.265Z,465.0000
2023-04-15T04:50:54.218Z,465.0000
2023-04-15T04:52:02.322Z,463.0000
2023-04-15T04:53:10.421Z,464.0000
2023-04-15T04:54:18.341Z,462.0000
2023-04-15T04:55:26.472Z,463.0000
2023-04-15T04:56:34.670Z,464.0000
2023-04-15T04:57:42.623Z,464.0000
2023-04-15T04:58:50.821Z,466.0000
2023-04-15T04:59:58.756Z,470.0000
2023-04-15T05:01:06.853Z,473.0000
2023-04-15T05:02:14.893Z,471.0000
2023-04-15T05:03:23.068Z,469.0000
2023-04-15T05:04:31.052Z,462.0000
2023-04-15T05:05:39.050Z,467.0000
2023-04-15T05:06:47.131Z,469.0000
2023-04-15T05:07:55.382Z,466.0000
2023-04-15T05:09:03.474Z,469.0000
2023-04-15T05:10:11.399Z,468.0000
2023-04-15T05:11:19.335Z,471.0000
2023-04-15T05:12:27.635Z,471.0000
2023-04-15T05:13:35.555Z,467.0000
2023-04-15T05:14:43.604Z,466.0000
2023-04-15T05:15:51.887Z,474.0000
2023-04-15T05:16:59.758Z,472.0000
2023-04-15T05:18:07.889Z,469.0000
2023-04-15T05:19:15.866Z,473.0000
2023-04-15T05:20:24.025Z,468.0000
2023-04-15T05:21:31.991Z,468.0000
2023-04-15T05:22:40.131Z,475.0000
2023-04-15T05:23:48.049Z,475.0000
2023-04-15T05:24:56.202Z,468.0000
2023-04-15T05:26:04.256Z,467.0000
2023-04-15T05:27:12.376Z,472.0000
2023-04-15T05:28:20.360Z,467.0000
2023-04-15T05:29:28.386Z,462.0000
2023-04-15T05:30:36.557Z,463.0000
2023-04-15T05:31:44.699Z,471.0000
2023-04-15T05:32:52.734Z,470.0000
2023-04-15T05:34:00.753Z,473.0000
2023-04-15T05:35:08.936Z,472.0000
2023-04-15T05:36:16.861Z,466.0000
2023-04-15T05:37:24.975Z,465.0000
2023-04-15T05:38:33.078Z,464.0000
2023-04-15T05:39:41.127Z,469.0000
2023-04-15T05:40:49.206Z,470.0000
2023-04-15T05:41:57.193Z,467.0000
2023-04-15T05:43:05.486Z,466.0000
2023-04-15T05:44:13.324Z,464.0000
2023-04-15T05:45:21.312Z,472.0000
2023-04-15T05:46:29.484Z,471.0000
2023-04-15T05:47:37.776Z,463.0000
2023-04-15T05:48:45.589Z,469.0000
2023-04-15T05:49:53.717Z,466.0000
2023-04-15T05:51:01.779Z,467.0000
2023-04-15T05:52:09.810Z,473.0000
2023-04-15T05:53:17.901Z,470.0000
2023-04-15T05:54:25.931Z,466.0000
2023-04-15T05:55:34.016Z,463.0000
2023-04-15T05:56:42.091Z,465.0000
2023-04-15T05:57:50.088Z,466.0000
2023-04-15T05:58:58.304Z,470.0000
2023-04-15T06:00:06.214Z,466.0000
2023-04-15T06:01:14.377Z,473.0000
2023-04-15T06:02:22.532Z,475.0000
2023-04-15T06:03:30.647Z,468.0000
2023-04-15T06:04:38.731Z,474.0000
2023-04-15T06:05:46.568Z,472.0000
2023-04-15T06:06:54.850Z,469.0000
2023-04-15T06:08:02.869Z,462.0000
2023-04-15T06:09:10.854Z,464.0000
2023-04-15T06:10:18.895Z,467.0000
2023-04-15T06:11:26.864Z,473.0000
2023-04-15T06:12:35.027Z,471.0000
2023-04-15T06:13:43.063Z,467.0000
2023-04-15T06:14:51.164Z,466.0000
2023-04-15T06:15:59.307Z,461.0000
2023-04-15T06:17:07.187Z,463.0000
2023-04-15T06:18:15.543Z,468.0000
2023-04-15T06:19:23.465Z,462.0000
2023-04-15T06:20:31.623Z,472.0000
2023-04-15T06:21:39.592Z,473.0000
2023-04-15T06:22:47.517Z,468.0000
2023-04-15T06:23:55.798Z,460.0000
2023-04-15T06:25:03.734Z,463.0000
2023-04-15T06:26:11.850Z,461.0000
2023-04-15T06:27:19.868Z,463.0000
2023-04-15T06:28:27.895Z,463.0000
2023-04-15T06:29:36.190Z,465.0000
2023-04-15T06:30:44.029Z,472.0000
2023-04-15T06:31:52.174Z,475.0000
2023-04-15T06:33:00.357Z,475.0000
2023-04-15T06:34:08.266Z,474.0000
2023-04-15T06:35:16.422Z,477.0000
2023-04-15T06:36:24.360Z,483.0000
2023-04-15T06:37:32.437Z,488.0000
2023-04-15T06:38:40.563Z,493.0000
2023-04-15T06:39:48.634Z,486.0000
2023-04-15T06:40:56.705Z,485.0000
2023-04-15T06:42:04.753Z,488.0000
2023-04-15T06:43:12.764Z,483.0000
2023-04-15T06:44:20.876Z,479.0000
2023-04-15T06:45:29.007Z,485.0000
2023-04-15T06:46:36.979Z,487.0000
2023-04-15T06:47:45.214Z,490.0000
2023-04-15T06:48:53.054Z,495.0000
2023-04-15T06:50:01.161Z,495.0000
2023-04-15T06:51:09.256Z,485.0000
2023-04-15T06:52:17.245Z,483.0000
2023-04-15T06:53:25.390Z,487.0000
2023-04-15T06:54:33.437Z,489.0000
2023-04-15T06:55:41.474Z,482.0000
2023-04-15T06:56:49.624Z,474.0000
2023-04-15T06:57:57.737Z,476.0000
2023-04-15T06:59:05.754Z,479.0000
2023-04-15T07:00:13.710Z,479.0000
2023-04-15T07:01:21.889Z,476.0000
2023-04-15T07:02:29.984Z,476.0000
2023-04-15T07:03:38.059Z,483.0000
2023-04-15T07:04:46.069Z,482.0000
2023-04-15T07:05:54.126Z,477.0000
2023-04-15T07:07:02.224Z,482.0000
2023-04-15T07:08:10.378Z,484.0000
2023-04-15T07:09:18.263Z,486.0000
2023-04-15T07:10:26.485Z,490.0000
2023-04-15T07:11:34.418Z,490.0000
2023-04-15T07:12:42.486Z,495.0000
2023-04-15T07:13:50.655Z,491.0000
2023-04-15T07:14:58.524Z,488.0000
2023-04-15T07:16:06.642Z,491.0000
2023-04-15T07:17:14.778Z,491.0000
2023-04-15T07:18:22.855Z,492.0000
2023-04-15T07:19:30.949Z,494.0000
2023-04-15T07:20:38.955Z,489.0000
2023-04-15T07:21:46.999Z,488.0000
2023-04-15T07:22:55.059Z,483.0000
2023-04-15T07:24:03.115Z,476.0000
2023-04-15T07:25:11.149Z,481.0000
2023-04-15T07:26:19.150Z,477.0000
2023-04-15T07:27:27.209Z,464.0000
2023-04-15T07:28:35.459Z,460.0000
2023-04-15T07:29:43.486Z,462.0000
2023-04-15T07:30:51.499Z,466.0000
2023-04-15T07:31:59.479Z,468.0000
2023-04-15T07:33:07.693Z,479.0000
2023-04-15T07:34:15.803Z,490.0000
2023-04-15T07:35:23.769Z,488.0000
2023-04-15T07:36:31.941Z,485.0000
2023-04-15T07:37:39.876Z,485.0000
2023-04-15T07:38:47.860Z,473.0000
2023-04-15T07:39:55.999Z,469.0000
2023-04-15T07:41:04.120Z,466.0000
2023-04-15T07:42:12.217Z,464.0000
2023-04-15T07:43:20.228Z,463.0000
2023-04-15T07:44:28.457Z,464.0000
2023-04-15T07:45:36.648Z,463.0000
2023-04-15T07:46:44.390Z,462.0000
2023-04-15T07:47:52.481Z,463.0000
2023-04-15T07:49:01.018Z,468.0000
2023-04-15T07:50:08.574Z,458.0000
2023-04-15T07:51:16.617Z,453.0000
2023-04-15T07:52:24.583Z,453.0000
2023-04-15T07:53:32.893Z,454.0000
2023-04-15T07:54:40.929Z,466.0000
2023-04-15T07:55:48.850Z,457.0000
2023-04-15T07:56:57.018Z,452.0000
2023-04-15T07:58:05.024Z,446.0000
2023-04-15T07:59:13.106Z,469.0000
2023-04-15T08:00:21.137Z,472.0000
2023-04-15T08:01:29.186Z,465.0000
2023-04-15T08:02:38.982Z,460.0000
2023-04-15T08:03:50.272Z,480.0000
2023-04-15T08:04:58.446Z,474.0000
2023-04-15T08:06:06.296Z,448.0000
2023-04-15T08:07:14.346Z,450.0000
2023-04-15T08:08:22.442Z,454.0000
2023-04-15T08:09:30.623Z,452.0000
2023-04-15T08:10:38.484Z,462.0000
2023-04-15T08:11:46.615Z,455.0000
2023-04-15T08:12:54.789Z,457.0000
2023-04-15T08:14:02.889Z,460.0000
2023-04-15T08:15:10.845Z,458.0000
2023-04-15T08:16:18.975Z,454.0000
2023-04-15T08:17:27.000Z,459.0000
2023-04-15T08:18:34.983Z,460.0000
2023-04-15T08:19:43.136Z,456.0000
2023-04-15T08:20:51.265Z,445.0000
2023-04-15T08:21:59.206Z,450.0000
2023-04-15T08:23:07.261Z,457.0000
2023-04-15T08:24:15.288Z,469.0000
2023-04-15T08:25:23.396Z,478.0000
2023-04-15T08:26:31.441Z,481.0000
2023-04-15T08:27:39.516Z,490.0000
2023-04-15T08:28:47.588Z,488.0000
2023-04-15T08:29:55.754Z,488.0000
2023-04-15T08:31:03.644Z,491.0000
2023-04-15T08:32:11.984Z,488.0000
2023-04-15T08:33:19.827Z,475.0000
2023-04-15T08:34:27.913Z,481.0000
2023-04-15T08:35:35.946Z,491.0000
2023-04-15T08:36:44.062Z,488.0000
2023-04-15T08:37:52.127Z,487.0000
2023-04-15T08:39:00.355Z,483.0000
2023-04-15T08:40:08.350Z,482.0000
2023-04-15T08:41:16.376Z,484.0000
2023-04-15T08:42:24.371Z,484.0000
2023-04-15T08:43:32.510Z,485.0000
2023-04-15T08:44:40.522Z,495.0000
2023-04-15T08:45:48.632Z,490.0000
2023-04-15T08:46:56.821Z,485.0000
2023-04-15T08:48:04.774Z,483.0000
2023-04-15T08:49:12.897Z,481.0000
2023-04-15T08:50:20.735Z,481.0000
2023-04-15T08:51:29.078Z,481.0000
2023-04-15T08:52:36.970Z,481.0000
2023-04-15T08:53:45.154Z,483.0000
2023-04-15T08:54:53.138Z,476.0000
2023-04-15T08:56:01.079Z,480.0000
2023-04-15T08:57:09.179Z,485.0000
2023-04-15T08:58:17.287Z,484.0000
2023-04-15T08:59:25.357Z,482.0000
2023-04-15T09:00:33.439Z,483.0000
2023-04-15T09:01:41.427Z,484.0000
2023-04-15T09:02:49.855Z,482.0000
2023-04-15T09:03:57.692Z,482.0000
2023-04-15T09:05:05.650Z,479.0000
2023-04-15T09:06:13.778Z,478.0000
2023-04-15T09:07:21.777Z,485.0000
2023-04-15T09:08:29.862Z,480.0000
2023-04-15T09:09:38.083Z,481.0000
2023-04-15T09:10:45.946Z,485.0000
2023-04-15T09:11:54.095Z,492.0000
2023-04-15T09:13:02.128Z,492.0000
2023-04-15T09:14:10.157Z,490.0000
2023-04-15T09:15:18.206Z,493.0000
2023-04-15T09:16:26.343Z,494.0000
2023-04-15T09:17:34.591Z,492.0000
2023-04-15T09:18:42.415Z,486.0000
2023-04-15T09:19:50.455Z,486.0000
2023-04-15T09:20:58.631Z,486.0000
2023-04-15T09:22:06.712Z,488.0000
2023-04-15T09:23:14.640Z,489.0000
2023-04-15T09:24:22.802Z,487.0000
2023-04-15T09:25:32.815Z,483.0000
2023-04-15T09:26:43.816Z,486.0000
2023-04-15T09:27:51.690Z,490.0000
2023-04-15T09:28:59.909Z,490.0000
2023-04-15T09:30:07.870Z,492.0000
2023-04-15T09:31:16.009Z,494.0000
2023-04-15T09:32:24.114Z,489.0000
2023-04-15T09:33:32.119Z,493.0000
2023-04-15T09:34:40.054Z,490.0000
2023-04-15T09:35:48.215Z,487.0000
2023-04-15T09:36:56.384Z,492.0000
2023-04-15T09:38:04.329Z,489.0000
2023-04-15T09:39:12.475Z,490.0000
2023-04-15T09:40:20.383Z,484.0000
2023-04-15T09:41:28.569Z,481.0000
2023-04-15T09:42:36.716Z,482.0000
2023-04-15T09:43:44.813Z,481.0000
2023-04-15T09:44:52.705Z,482.0000
2023-04-15T09:46:00.793Z,483.0000
2023-04-15T09:47:08.904Z,481.0000
2023-04-15T09:48:16.821Z,479.0000
2023-04-15T09:49:25.077Z,478.0000
2023-04-15T09:50:32.994Z,480.0000
2023-04-15T09:51:42.185Z,482.0000
2023-04-15T09:52:49.150Z,489.0000
2023-04-15T09:53:57.131Z,481.0000
2023-04-15T09:55:05.191Z,479.0000
2023-04-15T09:56:13.339Z,479.0000
2023-04-15T09:57:21.407Z,483.0000
2023-04-15T09:58:29.595Z,480.0000
2023-04-15T09:59:37.417Z,481.0000
2023-04-15T10:00:45.487Z,480.0000
2023-04-15T10:01:53.661Z,483.0000
2023-04-15T10:03:01.745Z,476.0000
2023-04-15T10:04:09.868Z,475.0000
2023-04-15T10:05:17.733Z,471.0000
2023-04-15T10:06:25.784Z,471.0000
2023-04-15T10:07:33.971Z,474.0000
2023-04-15T10:08:42.011Z,485.0000
2023-04-15T10:09:50.207Z,473.0000
2023-04-15T10:10:58.126Z,475.0000
2023-04-15T10:12:06.109Z,473.0000
2023-04-15T10:13:14.408Z,474.0000
2023-04-15T10:14:22.339Z,475.0000
2023-04-15T10:15:30.281Z,481.0000
2023-04-15T10:16:38.416Z,488.0000
2023-04-15T10:17:46.535Z,483.0000
2023-04-15T10:18:54.579Z,484.0000
2023-04-15T10:20:02.526Z,483.0000
2023-04-15T10:21:10.888Z,484.0000
2023-04-15T10:22:18.737Z,481.0000
2023-04-15T10:23:26.791Z,482.0000
2023-04-15T10:24:34.943Z,488.0000
2023-04-15T10:25:42.858Z,488.0000
2023-04-15T10:26:50.882Z,488.0000
2023-04-15T10:27:59.088Z,491.0000
2023-04-15T10:29:07.193Z,487.0000
2023-04-15T10:30:15.230Z,480.0000
2023-04-15T10:31:23.323Z,481.0000
2023-04-15T10:32:31.340Z,481.0000
2023-04-15T10:33:39.359Z,482.0000
2023-04-15T10:34:47.410Z,483.0000
2023-04-15T10:35:55.590Z,483.0000
2023-04-15T10:37:03.760Z,476.0000
2023-04-15T10:38:11.616Z,476.0000
2023-04-15T10:39:19.721Z,477.0000
2023-04-15T10:40:27.720Z,478.0000
2023-04-15T10:41:35.832Z,468.0000
2023-04-15T10:42:43.856Z,479.0000
2023-04-15T10:43:51.982Z,500.0000
2023-04-15T10:44:59.999Z,492.0000
2023-04-15T10:46:08.107Z,485.0000
2023-04-15T10:47:16.151Z,485.0000
2023-04-15T10:48:24.409Z,484.0000
2023-04-15T10:49:32.342Z,487.0000
2023-04-15T10:50:40.376Z,484.0000
2023-04-15T10:51:48.376Z,480.0000
2023-04-15T10:52:56.497Z,484.0000
2023-04-15T10:54:04.724Z,478.0000
2023-04-15T10:55:12.706Z,468.0000
2023-04-15T10:56:20.656Z,467.0000
2023-04-15T10:57:28.765Z,468.0000
2023-04-15T10:58:36.848Z,465.0000
2023-04-15T10:59:44.898Z,467.0000
2023-04-15T11:00:52.985Z,467.0000
2023-04-15T11:02:01.081Z,456.0000
2023-04-15T11:03:09.472Z,447.0000
2023-04-15T11:04:17.151Z,446.0000
2023-04-15T11:05:25.164Z,450.0000
2023-04-15T11:06:33.446Z,456.0000
2023-04-15T11:07:41.300Z,464.0000
2023-04-15T11:08:49.418Z,467.0000
2023-04-15T11:09:57.507Z,471.0000
2023-04-15T11:11:05.492Z,478.0000
2023-04-15T11:12:13.663Z,470.0000
2023-04-15T11:13:21.613Z,472.0000
2023-04-15T11:14:29.826Z,472.0000
2023-04-15T11:15:37.709Z,478.0000
2023-04-15T11:16:45.869Z,481.0000
2023-04-15T11:17:54.115Z,479.0000
2023-04-15T11:19:01.961Z,476.0000
2023-04-15T11:20:10.011Z,465.0000
2023-04-15T11:21:18.207Z,469.0000
2023-04-15T11:22:26.100Z,463.0000
2023-04-15T11:23:34.310Z,463.0000
2023-04-15T11:24:42.285Z,455.0000
2023-04-15T11:25:50.312Z,458.0000
2023-04-15T11:26:58.352Z,459.0000
2023-04-15T11:28:06.393Z,461.0000
2023-04-15T11:29:14.555Z,463.0000
2023-04-15T11:30:22.536Z,462.0000
2023-04-15T11:31:30.608Z,458.0000
2023-04-15T11:32:38.777Z,458.0000
2023-04-15T11:33:46.711Z,451.0000
2023-04-15T11:34:54.768Z,447.0000
2023-04-15T11:36:02.919Z,448.0000
2023-04-15T11:37:10.891Z,448.0000
2023-04-15T11:38:18.947Z,446.0000
2023-04-15T11:39:27.095Z,448.0000
2023-04-15T11:40:35.162Z,448.0000
2023-04-15T11:41:43.035Z,451.0000
2023-04-15T11:42:51.254Z,446.0000
2023-04-15T11:43:59.219Z,451.0000
2023-04-15T11:45:07.303Z,453.0000
2023-04-15T11:46:15.424Z,458.0000
2023-04-15T11:47:23.335Z,463.0000
2023-04-15T11:48:31.464Z,466.0000
2023-04-15T11:49:39.579Z,463.0000
2023-04-15T11:50:47.695Z,458.0000
2023-04-15T11:51:55.566Z,465.0000
2023-04-15T11:53:04.373Z,460.0000
2023-04-15T11:54:11.896Z,452.0000
2023-04-15T11:55:19.851Z,454.0000
2023-04-15T11:56:27.911Z,468.0000
2023-04-15T11:57:36.035Z,461.0000
2023-04-15T11:58:44.058Z,456.0000
2023-04-15T11:59:52.220Z,456.0000
2023-04-15T12:01:00.129Z,462.0000
2023-04-15T12:02:08.282Z,462.0000
2023-04-15T12:03:16.436Z,452.0000
2023-04-15T12:04:25.933Z,460.0000
2023-04-15T12:05:32.418Z,466.0000
2023-04-15T12:06:40.450Z,463.0000
2023-04-15T12:07:48.517Z,471.0000
2023-04-15T12:08:56.808Z,475.0000
2023-04-15T12:10:04.685Z,471.0000
2023-04-15T12:11:12.711Z,472.0000
2023-04-15T12:12:20.818Z,472.0000
2023-04-15T12:13:28.806Z,470.0000
2023-04-15T12:14:36.875Z,463.0000
2023-04-15T12:15:45.028Z,464.0000
2023-04-15T12:16:53.007Z,464.0000
2023-04-15T12:18:01.089Z,469.0000
2023-04-15T12:19:09.125Z,467.0000
2023-04-15T12:20:17.273Z,462.0000
2023-04-15T12:21:25.354Z,463.0000
2023-04-15T12:22:33.317Z,469.0000
2023-04-15T12:23:41.501Z,470.0000
2023-04-15T12:24:49.466Z,476.0000
2023-04-15T12:25:57.535Z,479.0000
2023-04-15T12:27:05.724Z,474.0000
2023-04-15T12:28:13.607Z,475.0000
2023-04-15T12:29:21.661Z,474.0000
2023-04-15T12:30:29.869Z,477.0000
2023-04-15T12:31:37.967Z,476.0000
2023-04-15T12:32:45.865Z,466.0000
2023-04-15T12:33:53.910Z,461.0000
2023-04-15T12:35:02.076Z,460.0000
2023-04-15T12:36:10.054Z,463.0000
2023-04-15T12:37:18.110Z,463.0000
2023-04-15T12:38:26.298Z,458.0000
2023-04-15T12:39:34.279Z,463.0000
2023-04-15T12:40:42.322Z,458.0000
2023-04-15T12:41:50.426Z,451.0000
2023-04-15T12:42:58.409Z,448.0000
2023-04-15T12:44:06.710Z,456.0000
2023-04-15T12:45:14.523Z,457.0000
2023-04-15T12:46:22.740Z,455.0000
2023-04-15T12:47:30.713Z,447.0000
2023-04-15T12:48:38.738Z,450.0000
2023-04-15T12:49:46.800Z,456.0000
2023-04-15T12:50:54.842Z,458.0000
2023-04-15T12:52:02.971Z,454.0000
2023-04-15T12:53:11.079Z,450.0000
2023-04-15T12:54:19.102Z,451.0000
2023-04-15T12:55:27.144Z,449.0000
2023-04-15T12:56:35.288Z,453.0000
2023-04-15T12:57:43.257Z,451.0000
2023-04-15T12:58:51.281Z,457.0000
2023-04-15T12:59:59.415Z,461.0000
2023-04-15T13:01:07.410Z,464.0000
2023-04-15T13:02:15.599Z,462.0000
2023-04-15T13:03:23.832Z,458.0000
2023-04-15T13:04:31.808Z,449.0000
2023-04-15T13:05:39.705Z,446.0000
2023-04-15T13:06:47.791Z,448.0000
2023-04-15T13:07:55.888Z,448.0000
2023-04-15T13:09:05.239Z,442.0000
2023-04-15T13:10:12.099Z,444.0000
2023-04-15T13:11:20.013Z,436.0000
2023-04-15T13:12:28.063Z,445.0000
2023-04-15T13:13:36.101Z,439.0000
2023-04-15T13:14:44.149Z,437.0000
2023-04-15T13:15:52.143Z,446.0000
2023-04-15T13:17:00.229Z,447.0000
2023-04-15T13:18:08.368Z,450.0000
2023-04-15T13:19:16.508Z,456.0000